createdAt,value
2023-03-12T00:00:17.016Z,5.40
2023-03-12T00:01:22.895Z,5.40
2023-03-12T00:02:27.251Z,5.40
2023-03-12T00:03:29.064Z,5.40
2023-03-12T00:04:32.519Z,5.40
2023-03-12T00:05:37.090Z,5.40
2023-03-12T00:06:38.844Z,5.40
2023-03-12T00:07:40.917Z,5.40
2023-03-12T00:08:43.023Z,5.40
2023-03-12T00:09:46.159Z,5.40
2023-03-12T00:10:48.002Z,5.30
2023-03-12T00:11:50.000Z,5.30
2023-03-12T00:12:52.262Z,5.30
2023-03-12T00:13:56.780Z,5.30
2023-03-12T00:14:59.939Z,5.30
2023-03-12T00:16:11.212Z,5.30
2023-03-12T00:17:15.767Z,5.30
2023-03-12T00:18:19.265Z,5.30
2023-03-12T00:19:21.497Z,5.20
2023-03-12T00:20:23.429Z,5.20
2023-03-12T00:21:27.709Z,5.20
2023-03-12T00:22:29.484Z,5.20
2023-03-12T00:23:33.098Z,5.20
2023-03-12T00:24:36.567Z,5.20
2023-03-12T00:25:40.902Z,5.30
2023-03-12T00:26:43.638Z,5.30
2023-03-12T00:27:45.782Z,5.20
2023-03-12T00:28:49.518Z,5.30
2023-03-12T00:29:52.508Z,5.30
2023-03-12T00:30:57.072Z,5.20
2023-03-12T00:31:58.858Z,5.30
2023-03-12T00:33:00.558Z,5.30
2023-03-12T00:34:03.557Z,5.30
2023-03-12T00:35:07.210Z,5.30
2023-03-12T00:36:09.405Z,5.30
2023-03-12T00:37:11.098Z,5.20
2023-03-12T00:38:13.100Z,5.20
2023-03-12T00:39:14.841Z,5.20
2023-03-12T00:40:18.028Z,5.20
2023-03-12T00:41:20.611Z,5.20
2023-03-12T00:42:23.011Z,5.20
2023-03-12T00:43:24.807Z,5.20
2023-03-12T00:44:26.547Z,5.20
2023-03-12T00:45:32.322Z,5.20
2023-03-12T00:46:34.401Z,5.20
2023-03-12T00:47:38.519Z,5.20
2023-03-12T00:48:40.515Z,5.20
2023-03-12T00:49:42.666Z,5.20
2023-03-12T00:50:44.576Z,5.20
2023-03-12T00:51:51.079Z,5.40
2023-03-12T00:52:53.103Z,5.20
2023-03-12T00:53:56.085Z,5.20
2023-03-12T00:55:00.007Z,5.20
2023-03-12T00:56:03.250Z,5.20
2023-03-12T00:57:05.194Z,5.30
2023-03-12T00:58:09.039Z,5.10
2023-03-12T00:59:12.562Z,5.10
2023-03-12T01:00:14.980Z,5.10
2023-03-12T01:01:16.906Z,5.00
2023-03-12T01:02:18.723Z,5.00
2023-03-12T01:03:20.916Z,5.00
2023-03-12T01:04:24.167Z,5.00
2023-03-12T01:05:26.464Z,5.00
2023-03-12T01:06:28.512Z,5.00
2023-03-12T01:07:30.472Z,4.90
2023-03-12T01:08:32.180Z,5.00
2023-03-12T01:09:35.137Z,5.00
2023-03-12T01:10:40.740Z,5.00
2023-03-12T01:11:43.552Z,5.00
2023-03-12T01:12:45.606Z,5.00
2023-03-12T01:13:51.060Z,5.00
2023-03-12T01:14:52.972Z,5.00
2023-03-12T01:15:54.941Z,5.10
2023-03-12T01:16:56.686Z,5.10
2023-03-12T01:17:58.332Z,5.10
2023-03-12T01:19:02.429Z,5.10
2023-03-12T01:20:05.877Z,5.10
2023-03-12T01:21:07.545Z,5.10
2023-03-12T01:22:11.871Z,5.00
2023-03-12T01:23:14.029Z,5.00
2023-03-12T01:24:17.796Z,5.00
2023-03-12T01:25:19.626Z,5.00
2023-03-12T01:26:21.615Z,5.00
2023-03-12T01:27:25.886Z,5.00
2023-03-12T01:28:28.684Z,5.00
2023-03-12T01:29:31.551Z,5.00
2023-03-12T01:30:33.397Z,5.00
2023-03-12T01:31:38.527Z,5.00
2023-03-12T01:32:40.482Z,5.00
2023-03-12T01:33:42.390Z,5.00
2023-03-12T01:34:45.502Z,5.00
2023-03-12T01:35:47.912Z,5.00
2023-03-12T01:36:49.821Z,5.00
2023-03-12T01:37:52.798Z,5.00
2023-03-12T01:38:57.211Z,5.00
2023-03-12T01:39:59.463Z,4.90
2023-03-12T01:41:01.216Z,5.00
2023-03-12T01:42:03.748Z,5.00
2023-03-12T01:43:36.635Z,4.90
2023-03-12T01:44:58.942Z,4.90
2023-03-12T01:46:28.062Z,4.90
2023-03-12T01:47:33.140Z,4.90
2023-03-12T01:48:46.060Z,4.90
2023-03-12T01:49:49.882Z,4.90
2023-03-12T01:50:53.040Z,4.90
2023-03-12T01:52:09.133Z,5.00
2023-03-12T01:53:11.699Z,4.90
2023-03-12T01:54:19.911Z,4.90
2023-03-12T01:55:21.700Z,4.70
2023-03-12T01:56:28.328Z,4.90
2023-03-12T01:57:51.687Z,4.90
2023-03-12T01:58:58.482Z,4.90
2023-03-12T02:00:09.039Z,4.90
2023-03-12T02:01:10.845Z,4.90
2023-03-12T02:02:14.435Z,4.90
2023-03-12T02:03:17.681Z,4.90
2023-03-12T02:04:23.864Z,4.90
2023-03-12T02:05:43.813Z,4.90
2023-03-12T02:07:07.100Z,4.90
2023-03-12T02:08:09.562Z,4.90
2023-03-12T02:09:13.267Z,4.80
2023-03-12T02:10:16.373Z,4.80
2023-03-12T02:11:18.447Z,4.80
2023-03-12T02:12:20.323Z,4.80
2023-03-12T02:13:22.313Z,4.70
2023-03-12T02:14:24.034Z,4.70
2023-03-12T02:15:48.470Z,4.70
2023-03-12T02:16:51.305Z,4.70
2023-03-12T02:17:54.441Z,4.70
2023-03-12T02:18:59.803Z,4.70
2023-03-12T02:20:28.043Z,4.70
2023-03-12T02:21:35.340Z,4.80
2023-03-12T02:22:41.444Z,4.80
2023-03-12T02:24:09.202Z,4.80
2023-03-12T02:25:39.518Z,4.80
2023-03-12T02:26:41.506Z,4.80
2023-03-12T02:27:43.835Z,4.80
2023-03-12T02:28:46.803Z,4.70
2023-03-12T02:29:52.296Z,4.70
2023-03-12T02:30:58.898Z,4.70
2023-03-12T02:32:04.580Z,4.70
2023-03-12T02:33:09.125Z,4.70
2023-03-12T02:34:11.238Z,4.70
2023-03-12T02:35:15.175Z,4.70
2023-03-12T02:36:16.896Z,4.80
2023-03-12T02:37:19.672Z,4.80
2023-03-12T02:38:32.382Z,4.80
2023-03-12T02:39:34.028Z,4.80
2023-03-12T02:40:41.068Z,4.80
2023-03-12T02:41:51.042Z,4.80
2023-03-12T02:42:54.082Z,4.80
2023-03-12T02:44:17.728Z,4.80
2023-03-12T02:45:21.145Z,4.80
2023-03-12T02:46:26.318Z,4.80
2023-03-12T02:47:28.009Z,4.70
2023-03-12T02:48:29.900Z,4.70
2023-03-12T02:49:34.060Z,4.70
2023-03-12T02:50:35.772Z,4.70
2023-03-12T02:51:37.675Z,4.80
2023-03-12T02:52:40.021Z,4.80
2023-03-12T02:53:41.927Z,4.80
2023-03-12T02:54:43.626Z,4.80
2023-03-12T02:55:45.250Z,4.80
2023-03-12T02:56:47.284Z,4.80
2023-03-12T02:57:49.028Z,4.60
2023-03-12T02:58:50.679Z,4.70
2023-03-12T02:59:52.350Z,4.70
2023-03-12T03:00:54.369Z,4.70
2023-03-12T03:01:59.826Z,4.80
2023-03-12T03:03:01.904Z,4.80
2023-03-12T03:04:06.023Z,4.80
2023-03-12T03:05:08.537Z,4.80
2023-03-12T03:06:10.193Z,4.70
2023-03-12T03:07:12.209Z,4.60
2023-03-12T03:08:13.870Z,4.70
2023-03-12T03:09:16.008Z,4.60
2023-03-12T03:10:17.805Z,4.60
2023-03-12T03:11:24.216Z,4.60
2023-03-12T03:12:25.845Z,4.70
2023-03-12T03:13:27.592Z,4.60
2023-03-12T03:14:29.289Z,4.60
2023-03-12T03:15:31.855Z,4.60
2023-03-12T03:16:34.838Z,4.60
2023-03-12T03:17:38.492Z,4.60
2023-03-12T03:18:42.606Z,4.50
2023-03-12T03:19:44.241Z,4.60
2023-03-12T03:20:46.095Z,4.50
2023-03-12T03:21:47.824Z,4.50
2023-03-12T03:22:49.693Z,4.50
2023-03-12T03:23:51.824Z,4.50
2023-03-12T03:24:54.942Z,4.50
2023-03-12T03:25:57.176Z,4.50
2023-03-12T03:26:59.413Z,4.60
2023-03-12T03:28:01.066Z,4.60
2023-03-12T03:29:03.151Z,4.60
2023-03-12T03:30:07.115Z,4.60
2023-03-12T03:31:09.136Z,4.60
2023-03-12T03:32:10.769Z,4.60
2023-03-12T03:33:12.770Z,4.30
2023-03-12T03:34:14.853Z,4.60
2023-03-12T03:35:16.946Z,4.50
2023-03-12T03:36:19.498Z,4.60
2023-03-12T03:37:22.415Z,4.50
2023-03-12T03:38:24.516Z,4.50
2023-03-12T03:39:28.938Z,4.50
2023-03-12T03:40:30.828Z,4.50
2023-03-12T03:41:37.018Z,4.50
2023-03-12T03:42:40.029Z,4.50
2023-03-12T03:43:41.685Z,4.40
2023-03-12T03:44:43.562Z,4.40
2023-03-12T03:45:45.322Z,4.40
2023-03-12T03:46:48.062Z,4.40
2023-03-12T03:47:49.991Z,4.30
2023-03-12T03:48:52.348Z,4.30
2023-03-12T03:49:54.013Z,4.30
2023-03-12T03:51:03.650Z,4.30
2023-03-12T03:52:08.587Z,4.50
2023-03-12T03:53:10.389Z,4.30
2023-03-12T03:54:12.300Z,4.20
2023-03-12T03:55:13.942Z,4.20
2023-03-12T03:56:19.670Z,4.20
2023-03-12T03:57:21.409Z,4.20
2023-03-12T03:58:23.200Z,4.20
2023-03-12T03:59:25.072Z,4.20
2023-03-12T04:00:28.008Z,4.20
2023-03-12T04:01:31.199Z,4.20
2023-03-12T04:02:32.870Z,4.20
2023-03-12T04:03:35.536Z,4.30
2023-03-12T04:04:37.266Z,4.30
2023-03-12T04:05:39.187Z,4.30
2023-03-12T04:06:41.130Z,4.30
2023-03-12T04:07:42.960Z,4.30
2023-03-12T04:08:49.955Z,4.30
2023-03-12T04:09:52.076Z,4.40
2023-03-12T04:10:53.832Z,4.40
2023-03-12T04:11:56.892Z,4.40
2023-03-12T04:12:58.696Z,4.40
2023-03-12T04:14:00.408Z,4.50
2023-03-12T04:15:02.244Z,4.50
2023-03-12T04:16:05.210Z,4.50
2023-03-12T04:17:09.987Z,4.50
2023-03-12T04:18:11.695Z,4.50
2023-03-12T04:19:13.548Z,4.50
2023-03-12T04:20:15.359Z,4.50
2023-03-12T04:21:17.441Z,4.50
2023-03-12T04:22:19.539Z,4.50
2023-03-12T04:23:21.541Z,4.50
2023-03-12T04:24:23.323Z,4.50
2023-03-12T04:25:25.070Z,4.60
2023-03-12T04:26:27.139Z,4.60
2023-03-12T04:27:29.768Z,4.60
2023-03-12T04:28:31.917Z,4.50
2023-03-12T04:29:35.201Z,4.50
2023-03-12T04:30:38.868Z,4.50
2023-03-12T04:31:40.835Z,4.50
2023-03-12T04:32:42.693Z,4.40
2023-03-12T04:33:44.925Z,4.40
2023-03-12T04:34:46.616Z,4.40
2023-03-12T04:35:55.351Z,4.40
2023-03-12T04:36:57.288Z,4.40
2023-03-12T04:38:01.547Z,4.40
2023-03-12T04:39:07.245Z,4.40
2023-03-12T04:40:11.379Z,4.40
2023-03-12T04:41:15.785Z,4.40
2023-03-12T04:42:17.743Z,4.30
2023-03-12T04:43:21.414Z,4.30
2023-03-12T04:44:23.165Z,4.40
2023-03-12T04:45:26.749Z,4.40
2023-03-12T04:46:29.291Z,4.40
2023-03-12T04:47:32.844Z,4.40
2023-03-12T04:48:35.554Z,4.40
2023-03-12T04:49:39.056Z,4.40
2023-03-12T04:50:40.795Z,4.40
2023-03-12T04:51:42.993Z,4.40
2023-03-12T04:52:44.654Z,4.40
2023-03-12T04:53:46.535Z,4.40
2023-03-12T04:54:50.447Z,4.40
2023-03-12T04:55:53.332Z,4.40
2023-03-12T04:56:55.053Z,4.50
2023-03-12T04:57:56.794Z,4.40
2023-03-12T04:58:58.534Z,4.50
2023-03-12T05:00:03.763Z,4.50
2023-03-12T05:01:08.348Z,4.50
2023-03-12T05:02:10.356Z,4.50
2023-03-12T05:03:13.207Z,4.50
2023-03-12T05:04:15.277Z,4.50
2023-03-12T05:05:17.407Z,4.50
2023-03-12T05:06:22.617Z,4.50
2023-03-12T05:07:25.557Z,4.50
2023-03-12T05:08:29.393Z,4.50
2023-03-12T05:09:33.216Z,4.60
2023-03-12T05:10:35.111Z,4.60
2023-03-12T05:11:39.906Z,4.60
2023-03-12T05:12:41.740Z,4.60
2023-03-12T05:13:43.796Z,4.70
2023-03-12T05:14:45.471Z,4.70
2023-03-12T05:15:51.151Z,4.80
2023-03-12T05:16:52.918Z,4.70
2023-03-12T05:17:59.755Z,4.70
2023-03-12T05:19:02.294Z,4.70
2023-03-12T05:20:06.099Z,4.70
2023-03-12T05:21:13.817Z,4.70
2023-03-12T05:22:15.657Z,4.70
2023-03-12T05:23:17.372Z,4.60
2023-03-12T05:24:20.193Z,4.60
2023-03-12T05:25:21.887Z,4.60
2023-03-12T05:26:27.285Z,4.60
2023-03-12T05:27:31.782Z,4.60
2023-03-12T05:28:34.082Z,4.60
2023-03-12T05:29:35.787Z,4.80
2023-03-12T05:30:42.386Z,4.50
2023-03-12T05:31:44.137Z,4.60
2023-03-12T05:32:47.265Z,4.50
2023-03-12T05:33:52.602Z,4.50
2023-03-12T05:34:55.833Z,4.50
2023-03-12T05:35:57.618Z,4.50
2023-03-12T05:36:59.395Z,4.50
2023-03-12T05:38:01.499Z,4.50
2023-03-12T05:39:03.292Z,4.60
2023-03-12T05:40:07.989Z,4.60
2023-03-12T05:41:18.715Z,4.60
2023-03-12T05:42:20.319Z,4.60
2023-03-12T05:43:22.842Z,4.60
2023-03-12T05:44:26.285Z,4.70
2023-03-12T05:45:28.151Z,4.70
2023-03-12T05:46:29.885Z,4.70
2023-03-12T05:47:31.824Z,4.80
2023-03-12T05:48:34.513Z,4.80
2023-03-12T05:49:36.384Z,4.90
2023-03-12T05:50:39.509Z,4.90
2023-03-12T05:51:44.784Z,4.90
2023-03-12T05:52:47.771Z,4.90
2023-03-12T05:53:50.634Z,5.00
2023-03-12T05:54:54.565Z,5.00
2023-03-12T05:56:03.526Z,5.00
2023-03-12T05:57:05.469Z,5.10
2023-03-12T05:58:08.953Z,5.10
2023-03-12T05:59:10.870Z,5.10
2023-03-12T06:00:14.553Z,5.10
2023-03-12T06:01:22.595Z,5.20
2023-03-12T06:02:24.275Z,5.20
2023-03-12T06:03:27.588Z,5.30
2023-03-12T06:04:29.649Z,5.30
2023-03-12T06:05:32.956Z,5.30
2023-03-12T06:06:37.135Z,5.30
2023-03-12T06:07:38.935Z,5.30
2023-03-12T06:08:42.163Z,5.30
2023-03-12T06:09:46.208Z,5.40
2023-03-12T06:10:50.116Z,5.40
2023-03-12T06:11:52.834Z,5.40
2023-03-12T06:12:54.552Z,5.40
2023-03-12T06:13:57.462Z,5.40
2023-03-12T06:14:59.176Z,5.40
2023-03-12T06:16:34.924Z,5.30
2023-03-12T06:17:36.587Z,5.30
2023-03-12T06:18:38.446Z,5.20
2023-03-12T06:19:40.045Z,5.20
2023-03-12T06:20:42.287Z,5.10
2023-03-12T06:21:44.513Z,5.10
2023-03-12T06:22:46.443Z,5.10
2023-03-12T06:23:48.916Z,5.10
2023-03-12T06:24:50.582Z,5.00
2023-03-12T06:25:52.344Z,5.00
2023-03-12T06:26:55.875Z,5.00
2023-03-12T06:28:00.406Z,5.00
2023-03-12T06:29:02.568Z,5.10
2023-03-12T06:30:05.041Z,5.00
2023-03-12T06:31:07.637Z,5.00
2023-03-12T06:32:09.562Z,4.90
2023-03-12T06:33:11.243Z,4.90
2023-03-12T06:34:12.999Z,4.90
2023-03-12T06:35:15.099Z,4.90
2023-03-12T06:36:17.209Z,4.90
2023-03-12T06:37:18.983Z,4.90
2023-03-12T06:38:20.921Z,4.80
2023-03-12T06:39:22.869Z,4.80
2023-03-12T06:40:24.531Z,4.80
2023-03-12T06:41:28.744Z,4.80
2023-03-12T06:42:37.108Z,4.80
2023-03-12T06:43:40.149Z,4.80
2023-03-12T06:44:41.806Z,4.80
2023-03-12T06:45:43.478Z,4.80
2023-03-12T06:46:45.524Z,4.70
2023-03-12T06:47:47.501Z,4.80
2023-03-12T06:48:51.673Z,4.80
2023-03-12T06:49:53.481Z,4.70
2023-03-12T06:50:56.228Z,4.70
2023-03-12T06:51:58.018Z,4.80
2023-03-12T06:52:59.657Z,4.80
2023-03-12T06:54:02.792Z,4.80
2023-03-12T06:55:05.498Z,4.80
2023-03-12T06:56:08.296Z,4.70
2023-03-12T06:57:11.642Z,4.70
2023-03-12T06:58:13.415Z,4.60
2023-03-12T06:59:15.210Z,4.60
2023-03-12T07:00:23.725Z,4.50
2023-03-12T07:01:25.559Z,4.50
2023-03-12T07:02:27.262Z,4.50
2023-03-12T07:03:30.997Z,4.50
2023-03-12T07:04:32.622Z,4.50
2023-03-12T07:05:34.601Z,4.50
2023-03-12T07:06:36.272Z,4.50
2023-03-12T07:07:39.186Z,4.50
2023-03-12T07:08:40.809Z,4.50
2023-03-12T07:09:42.824Z,4.50
2023-03-12T07:10:45.405Z,4.50
2023-03-12T07:11:47.122Z,4.50
2023-03-12T07:12:49.044Z,4.60
2023-03-12T07:13:51.632Z,4.60
2023-03-12T07:14:53.296Z,4.60
2023-03-12T07:15:59.053Z,4.70
2023-03-12T07:17:02.350Z,4.70
2023-03-12T07:18:12.866Z,4.70
2023-03-12T07:19:14.663Z,4.70
2023-03-12T07:20:17.956Z,4.70
2023-03-12T07:21:24.038Z,4.70
2023-03-12T07:22:25.798Z,4.70
2023-03-12T07:23:27.926Z,4.80
2023-03-12T07:24:32.029Z,4.80
2023-03-12T07:25:38.870Z,4.70
2023-03-12T07:26:40.599Z,4.80
2023-03-12T07:27:43.624Z,4.80
2023-03-12T07:28:45.618Z,4.80
2023-03-12T07:29:47.230Z,4.80
2023-03-12T07:30:50.723Z,4.80
2023-03-12T07:31:52.428Z,4.80
2023-03-12T07:32:54.134Z,4.90
2023-03-12T07:33:56.157Z,4.70
2023-03-12T07:34:57.844Z,4.70
2023-03-12T07:35:59.592Z,4.70
2023-03-12T07:37:03.278Z,4.70
2023-03-12T07:38:07.168Z,4.70
2023-03-12T07:39:08.986Z,4.80
2023-03-12T07:40:11.577Z,4.80
2023-03-12T07:41:16.614Z,4.90
2023-03-12T07:42:18.840Z,4.90
2023-03-12T07:43:21.852Z,4.90
2023-03-12T07:44:24.196Z,5.00
2023-03-12T07:45:26.200Z,5.00
2023-03-12T07:46:28.094Z,5.10
2023-03-12T07:47:29.967Z,5.10
2023-03-12T07:48:33.332Z,5.20
2023-03-12T07:49:35.259Z,5.20
2023-03-12T07:50:39.166Z,5.30
2023-03-12T07:51:41.043Z,5.30
2023-03-12T07:52:42.764Z,5.30
2023-03-12T07:53:44.480Z,5.40
2023-03-12T07:54:46.371Z,5.40
2023-03-12T07:55:49.444Z,5.50
2023-03-12T07:56:52.164Z,5.50
2023-03-12T07:57:56.847Z,5.60
2023-03-12T07:58:58.675Z,5.60
2023-03-12T08:00:00.641Z,5.90
2023-03-12T08:01:03.049Z,5.70
2023-03-12T08:02:05.119Z,5.80
2023-03-12T08:03:06.954Z,5.80
2023-03-12T08:04:09.851Z,5.90
2023-03-12T08:05:11.921Z,5.90
2023-03-12T08:06:13.832Z,5.90
2023-03-12T08:07:16.655Z,5.90
2023-03-12T08:08:18.562Z,6.00
2023-03-12T08:09:20.473Z,6.00
2023-03-12T08:10:23.241Z,6.00
2023-03-12T08:11:25.564Z,6.00
2023-03-12T08:12:31.880Z,6.00
2023-03-12T08:13:34.356Z,6.10
2023-03-12T08:14:36.493Z,6.10
2023-03-12T08:15:59.599Z,6.10
2023-03-12T08:17:01.962Z,6.10
2023-03-12T08:18:04.743Z,6.20
2023-03-12T08:19:06.378Z,6.20
2023-03-12T08:20:14.478Z,6.20
2023-03-12T08:21:16.727Z,6.30
2023-03-12T08:22:18.731Z,6.40
2023-03-12T08:23:25.659Z,6.20
2023-03-12T08:27:29.036Z,6.20
2023-03-12T08:28:30.963Z,6.20
2023-03-12T08:29:38.018Z,6.20
2023-03-12T08:30:39.668Z,6.10
2023-03-12T08:31:57.363Z,6.20
2023-03-12T08:33:06.146Z,6.20
2023-03-12T08:34:11.256Z,6.20
2023-03-12T08:35:13.042Z,6.20
2023-03-12T08:36:15.147Z,6.20
2023-03-12T08:37:16.922Z,6.20
2023-03-12T08:38:19.133Z,6.30
2023-03-12T08:39:22.115Z,6.30
2023-03-12T08:40:24.840Z,6.30
2023-03-12T08:41:26.455Z,6.30
2023-03-12T08:42:28.235Z,6.30
2023-03-12T08:43:30.277Z,6.30
2023-03-12T08:44:33.298Z,6.40
2023-03-12T08:45:37.167Z,6.40
2023-03-12T08:46:41.300Z,6.40
2023-03-12T08:47:44.233Z,6.40
2023-03-12T08:48:47.228Z,6.40
2023-03-12T08:49:50.433Z,6.40
2023-03-12T08:50:54.550Z,6.40
2023-03-12T08:51:56.217Z,6.50
2023-03-12T08:53:00.912Z,6.60
2023-03-12T08:54:02.585Z,6.60
2023-03-12T08:55:05.926Z,6.60
2023-03-12T08:56:08.042Z,6.60
2023-03-12T08:57:10.577Z,6.60
2023-03-12T08:58:12.229Z,6.60
2023-03-12T08:59:13.973Z,6.70
2023-03-12T09:00:19.929Z,6.70
2023-03-12T09:01:21.679Z,6.70
2023-03-12T09:02:24.480Z,6.70
2023-03-12T09:03:28.252Z,6.80
2023-03-12T09:04:30.141Z,6.80
2023-03-12T09:05:32.955Z,6.80
2023-03-12T09:06:35.470Z,6.90
2023-03-12T09:07:38.123Z,6.90
2023-03-12T09:08:40.676Z,6.90
2023-03-12T09:09:43.955Z,7.00
2023-03-12T09:10:53.782Z,6.90
2023-03-12T09:11:55.542Z,6.90
2023-03-12T09:12:57.181Z,6.80
2023-03-12T09:14:33.540Z,7.00
2023-03-12T09:15:21.860Z,7.00
2023-03-12T09:16:25.542Z,7.00
2023-03-12T09:17:29.311Z,7.00
2023-03-12T09:18:33.986Z,7.00
2023-03-12T09:19:35.685Z,7.00
2023-03-12T09:20:37.340Z,7.00
2023-03-12T09:21:40.063Z,7.00
2023-03-12T09:22:42.166Z,7.10
2023-03-12T09:23:44.143Z,7.10
2023-03-12T09:24:47.364Z,7.30
2023-03-12T09:25:50.858Z,7.10
2023-03-12T09:26:52.881Z,7.10
2023-03-12T09:27:54.544Z,7.10
2023-03-12T09:28:58.138Z,7.10
2023-03-12T09:30:01.269Z,7.10
2023-03-12T09:31:04.669Z,7.20
2023-03-12T09:32:06.910Z,7.10
2023-03-12T09:33:11.737Z,7.20
2023-03-12T09:34:14.839Z,7.20
2023-03-12T09:35:21.293Z,7.30
2023-03-12T09:36:23.105Z,7.30
2023-03-12T09:37:27.405Z,7.30
2023-03-12T09:38:31.787Z,7.40
2023-03-12T09:39:33.450Z,7.40
2023-03-12T09:40:39.929Z,7.50
2023-03-12T09:41:44.606Z,7.50
2023-03-12T09:43:01.936Z,7.50
2023-03-12T09:44:35.302Z,7.40
2023-03-12T09:45:39.633Z,7.50
2023-03-12T09:46:50.820Z,7.50
2023-03-12T09:48:02.381Z,7.50
2023-03-12T09:49:11.389Z,7.40
2023-03-12T09:50:24.599Z,7.40
2023-03-12T09:51:40.431Z,7.40
2023-03-12T09:52:53.177Z,7.50
2023-03-12T09:53:58.503Z,7.50
2023-03-12T09:55:16.349Z,7.50
2023-03-12T09:56:20.729Z,7.50
2023-03-12T09:57:25.640Z,7.60
2023-03-12T09:58:31.932Z,7.70
2023-03-12T09:59:35.468Z,7.70
2023-03-12T10:00:37.311Z,7.70
2023-03-12T10:01:51.211Z,7.70
2023-03-12T10:02:55.029Z,7.80
2023-03-12T10:04:04.459Z,7.80
2023-03-12T10:05:13.758Z,7.90
2023-03-12T10:06:23.654Z,7.90
2023-03-12T10:07:36.569Z,8.00
2023-03-12T10:09:00.802Z,8.00
2023-03-12T10:10:08.355Z,8.10
2023-03-12T10:11:28.861Z,8.20
2023-03-12T10:13:04.269Z,8.20
2023-03-12T10:14:25.221Z,8.30
2023-03-12T10:15:43.912Z,8.40
2023-03-12T10:16:45.631Z,8.40
2023-03-12T10:17:51.776Z,8.40
2023-03-12T10:19:05.747Z,8.40
2023-03-12T10:20:41.024Z,8.40
2023-03-12T10:22:04.711Z,8.50
2023-03-12T10:23:19.255Z,8.50
2023-03-12T10:24:54.765Z,8.50
2023-03-12T10:26:10.109Z,8.60
2023-03-12T10:27:15.740Z,8.60
2023-03-12T10:28:22.567Z,8.60
2023-03-12T10:29:28.561Z,8.60
2023-03-12T10:30:31.723Z,8.60
2023-03-12T10:31:48.040Z,8.60
2023-03-12T10:32:58.302Z,8.70
2023-03-12T10:34:02.116Z,8.70
2023-03-12T10:35:17.850Z,8.80
2023-03-12T10:36:28.231Z,8.90
2023-03-12T10:37:37.922Z,9.00
2023-03-12T10:38:39.636Z,9.00
2023-03-12T10:39:45.400Z,9.10
2023-03-12T10:40:48.068Z,9.10
2023-03-12T10:41:53.134Z,9.10
2023-03-12T10:42:56.584Z,9.20
2023-03-12T10:44:06.171Z,9.20
2023-03-12T10:45:10.627Z,9.30
2023-03-12T10:46:15.282Z,9.30
2023-03-12T10:48:00.795Z,9.40
2023-03-12T10:49:21.004Z,9.40
2023-03-12T10:50:36.218Z,9.40
2023-03-12T10:51:56.690Z,9.40
2023-03-12T10:53:23.841Z,9.40
2023-03-12T10:54:28.606Z,9.50
2023-03-12T10:55:31.965Z,9.50
2023-03-12T10:56:49.684Z,9.50
2023-03-12T10:57:51.871Z,9.60
2023-03-12T10:58:54.592Z,9.60
2023-03-12T11:00:13.604Z,9.60
2023-03-12T11:01:19.342Z,9.70
2023-03-12T11:02:40.157Z,9.70
2023-03-12T11:03:44.017Z,9.80
2023-03-12T11:04:51.886Z,9.80
2023-03-12T11:05:59.530Z,9.90
2023-03-12T11:07:19.559Z,9.90
2023-03-12T11:08:28.521Z,9.90
2023-03-12T11:09:30.437Z,10.00
2023-03-12T11:10:45.828Z,10.00
2023-03-12T11:11:48.810Z,10.00
2023-03-12T11:13:02.930Z,10.10
2023-03-12T11:14:07.801Z,10.10
2023-03-12T11:15:36.915Z,10.20
2023-03-12T11:16:38.957Z,10.20
2023-03-12T11:17:41.710Z,10.30
2023-03-12T11:19:04.629Z,10.40
2023-03-12T11:20:21.960Z,10.40
2023-03-12T11:21:23.830Z,10.50
2023-03-12T11:22:34.996Z,10.60
2023-03-12T11:24:04.807Z,10.70
2023-03-12T11:25:07.845Z,10.80
2023-03-12T11:26:19.895Z,10.90
2023-03-12T11:27:44.114Z,11.00
2023-03-12T11:29:17.513Z,11.00
2023-03-12T11:32:32.563Z,11.20
2023-03-12T11:33:34.363Z,11.20
2023-03-12T11:34:41.206Z,11.20
2023-03-12T11:36:18.056Z,11.20
2023-03-12T11:37:44.449Z,11.30
2023-03-12T11:39:15.460Z,11.30
2023-03-12T11:40:44.574Z,11.40
2023-03-12T11:42:16.849Z,11.50
2023-03-12T11:43:51.539Z,11.50
2023-03-12T11:45:32.191Z,11.60
2023-03-12T11:46:57.057Z,11.70
2023-03-12T11:48:11.342Z,11.70
2023-03-12T11:49:26.760Z,11.80
2023-03-12T11:51:00.360Z,11.80
2023-03-12T11:52:14.411Z,11.90
2023-03-12T11:53:16.075Z,11.90
2023-03-12T11:54:38.494Z,12.00
2023-03-12T11:56:04.432Z,12.00
2023-03-12T11:57:22.895Z,12.00
2023-03-12T11:58:53.266Z,12.00
2023-03-12T12:00:17.159Z,11.90
2023-03-12T12:01:32.419Z,12.00
2023-03-12T12:03:01.598Z,11.90
2023-03-12T12:04:32.759Z,11.90
2023-03-12T12:05:45.081Z,11.90
2023-03-12T12:07:12.092Z,11.90
2023-03-12T12:08:22.336Z,12.00
2023-03-12T12:09:29.017Z,12.00
2023-03-12T12:10:55.536Z,12.00
2023-03-12T12:12:58.432Z,12.00
2023-03-12T12:14:11.941Z,12.00
2023-03-12T12:15:38.312Z,12.10
2023-03-12T12:16:47.521Z,12.10
2023-03-12T12:18:14.049Z,12.10
2023-03-12T12:19:20.700Z,12.10
2023-03-12T12:20:47.738Z,12.20
2023-03-12T12:22:17.130Z,12.30
2023-03-12T12:23:38.177Z,12.30
2023-03-12T12:25:07.370Z,12.40
2023-03-12T12:26:25.828Z,12.40
2023-03-12T12:27:33.069Z,12.40
2023-03-12T12:29:02.470Z,12.40
2023-03-12T12:30:28.203Z,12.50
2023-03-12T12:31:33.973Z,12.50
2023-03-12T12:33:01.923Z,12.50
2023-03-12T12:34:27.914Z,12.50
2023-03-12T12:35:36.474Z,12.50
2023-03-12T12:36:39.559Z,12.50
2023-03-12T12:37:55.642Z,12.60
2023-03-12T12:39:06.651Z,12.60
2023-03-12T12:40:17.248Z,12.70
2023-03-12T12:41:25.330Z,12.70
2023-03-12T12:42:32.470Z,12.70
2023-03-12T12:43:39.036Z,12.70
2023-03-12T12:44:53.220Z,12.70
2023-03-12T12:45:59.307Z,12.70
2023-03-12T12:47:05.707Z,12.60
2023-03-12T12:48:16.145Z,12.60
2023-03-12T12:49:26.895Z,12.60
2023-03-12T12:50:34.050Z,12.70
2023-03-12T12:51:45.968Z,12.70
2023-03-12T12:53:07.748Z,12.70
2023-03-12T12:54:53.791Z,12.80
2023-03-12T12:56:30.006Z,12.80
2023-03-12T12:57:39.157Z,12.80
2023-03-12T12:58:50.057Z,12.80
2023-03-12T13:00:15.663Z,12.80
2023-03-12T13:01:18.261Z,12.80
2023-03-12T13:02:23.119Z,12.80
2023-03-12T13:03:27.266Z,12.70
2023-03-12T13:04:35.015Z,12.70
2023-03-12T13:05:36.740Z,12.70
2023-03-12T13:06:56.895Z,12.70
2023-03-12T13:07:58.516Z,12.80
2023-03-12T13:09:12.765Z,12.80
2023-03-12T13:10:48.514Z,12.80
2023-03-12T13:12:13.157Z,12.80
2023-03-12T13:13:22.280Z,12.80
2023-03-12T13:14:38.207Z,12.80
2023-03-12T13:15:44.095Z,12.80
2023-03-12T13:16:48.911Z,12.90
2023-03-12T13:17:55.686Z,12.80
2023-03-12T13:18:59.774Z,12.80
2023-03-12T13:20:13.431Z,12.70
2023-03-12T13:21:23.883Z,12.70
2023-03-12T13:22:53.055Z,12.70
2023-03-12T13:24:31.967Z,12.70
2023-03-12T13:25:54.576Z,12.70
2023-03-12T13:27:03.756Z,12.80
2023-03-12T13:29:11.477Z,12.70
2023-03-12T13:30:35.357Z,12.80
2023-03-12T13:31:38.288Z,12.80
2023-03-12T13:33:01.683Z,12.80
2023-03-12T13:34:27.571Z,12.80
2023-03-12T13:35:39.645Z,12.90
2023-03-12T13:36:45.112Z,12.90
2023-03-12T13:37:46.793Z,12.90
2023-03-12T13:39:27.734Z,12.90
2023-03-12T13:40:37.511Z,13.00
2023-03-12T13:41:45.032Z,13.00
2023-03-12T13:43:01.495Z,13.00
2023-03-12T13:44:33.173Z,13.00
2023-03-12T13:46:12.781Z,13.10
2023-03-12T13:47:28.636Z,13.10
2023-03-12T13:48:30.956Z,13.10
2023-03-12T13:49:41.113Z,13.10
2023-03-12T13:50:52.000Z,13.20
2023-03-12T13:52:08.720Z,13.20
2023-03-12T13:53:19.721Z,13.30
2023-03-12T13:54:27.306Z,13.30
2023-03-12T13:55:31.601Z,13.40
2023-03-12T13:56:34.905Z,13.40
2023-03-12T13:57:58.602Z,13.50
2023-03-12T13:59:04.358Z,13.50
2023-03-12T14:00:11.743Z,13.50
2023-03-12T14:01:21.712Z,13.40
2023-03-12T14:02:38.201Z,13.40
2023-03-12T14:03:41.507Z,13.40
2023-03-12T14:04:43.338Z,13.40
2023-03-12T14:05:58.809Z,13.40
2023-03-12T14:07:25.350Z,13.40
2023-03-12T14:08:36.032Z,13.40
2023-03-12T14:10:06.123Z,13.40
2023-03-12T14:11:36.313Z,13.50
2023-03-12T14:12:55.287Z,13.50
2023-03-12T14:14:24.302Z,13.50
2023-03-12T14:15:45.988Z,13.50
2023-03-12T14:16:51.139Z,13.40
2023-03-12T14:18:02.441Z,13.40
2023-03-12T14:19:05.135Z,13.40
2023-03-12T14:20:21.768Z,13.40
2023-03-12T14:21:24.100Z,13.50
2023-03-12T14:22:38.624Z,13.40
2023-03-12T14:23:48.378Z,13.40
2023-03-12T14:24:55.867Z,13.40
2023-03-12T14:26:03.877Z,13.40
2023-03-12T14:27:11.103Z,13.50
2023-03-12T14:28:23.866Z,13.50
2023-03-12T14:29:31.328Z,13.50
2023-03-12T14:30:58.870Z,13.50
2023-03-12T14:32:12.820Z,13.50
2023-03-12T14:33:15.829Z,13.50
2023-03-12T14:34:21.008Z,13.50
2023-03-12T14:35:26.042Z,13.40
2023-03-12T14:36:39.282Z,13.40
2023-03-12T14:37:45.536Z,13.50
2023-03-12T14:38:49.300Z,13.50
2023-03-12T14:39:55.693Z,13.50
2023-03-12T14:41:37.008Z,13.50
2023-03-12T14:42:38.599Z,13.60
2023-03-12T14:43:42.441Z,13.70
2023-03-12T14:44:55.239Z,13.70
2023-03-12T14:46:02.538Z,13.90
2023-03-12T14:47:07.788Z,14.10
2023-03-12T14:48:11.936Z,14.20
2023-03-12T14:49:20.678Z,14.50
2023-03-12T14:50:29.852Z,14.80
2023-03-12T14:51:36.171Z,15.10